Airfield :
LOGIN :

Register | Disclaimer

   EN    FR    IT 

 










Legend :    VFR   Marginal VFR   IFR   Intensive IFR   Very Intensive IFR
Visi :
Ceiling :
>= 8 km
>= 3000ft
5 to 8 km
1000 to 3000 ft
1500m to 5 km
500 to 1000 ft
800 to 1500m
200 to 500 ft
< 800m
< 200 ft
Symbols :   Thunderstorms  Fog  Heavy snow  Heavy precipitations  Wind > 20 kt
SIGMETs :     Misc.  Thunderstorms  Icing  Turbulence  Mountain Waves  Volcanic Ashes







- Airport Elevation : 327 ft
- IATA code : BHX
- Download approach charts


EGBB - Birmingham

CURRENT METAR :
  • 161320Z 21010KT 170V250 9999 VCSH SCT016 SCT024TCU 17/13 Q1014

EXPIRED METARs :
  • 161250Z 22011G23KT 190V250 9999 VCSH SCT014 SCT024TCU 16/13 Q1014 RESHRA
  • 161220Z 23009KT 180V290 9999 VCSH FEW017CB SCT030 17/12 Q1013 RESHRA
  • 161150Z 21010KT 170V260 9999 VCSH FEW026CB SCT034 18/10 Q1013
  • 161120Z 22010KT 170V250 9999 VCSH FEW015CB BKN032 18/11 Q1013
  • 161050Z 20011KT 180V240 9999 VCSH FEW024CB SCT035 17/10 Q1013

TAF TAF EGBB
Valid from the 16 at 12:00 until the 17 at 12:00 UTC


161058Z 1612/1712 20009KT 9999 SCT030
TEMPO 1612/1622 6000 SHRA
PROB30
TEMPO 1612/1620 19015G25KT 4000 +SHRA BKN014
PROB30
TEMPO 1620/1706 BKN014
ATIS : +44 121 780 0910
No reported NOTAMs for that airfield.



MET'MAP, your aeronautical weather chart ! - Copyright ORBIFLY December 2007 - Disclaimer

ORBIFLY MET'MAP TEAM :

Programming & Development : Alexandra Zaïnal
Concept & Development : Baudouin d'Aumeries
Co-Development & Prog : Marc-Olivier Méhu
Technical & hardware support : Manuel Goepfert

Contact : metmap@orbifly.com




SOURCES & CREDITS :

   NOAA